This is the latest recevied weather packets stored in our database for station/object DL1ONI-13. If no packets are shown the sender has not sent any weather packets the latest 10 day(s).
| Time | Temp. | Humidity | Pressure | Rain* | Wind** | Luminosity | Snow |
|---|---|---|---|---|---|---|---|
| 1777477845 | 17.78° C | 25% | 1024.4 hPa | 0 mm | - | - | - |
| 1777477225 | 17.78° C | 25% | 1024.5 hPa | 0 mm | - | - | - |
| 1777475426 | 17.78° C | 25% | 1024.4 hPa | 0 mm | - | - | - |
| 1777471218 | 17.78° C | 25% | 1025.8 hPa | 0 mm | - | - | - |
| 1777470639 | 17.78° C | 25% | 1026 hPa | 0 mm | - | - | - |
| 1777470019 | 17.22° C | 25% | 1026 hPa | 0 mm | - | - | - |
| 1777468221 | 17.22° C | 25% | 1026 hPa | 0 mm | - | - | - |
| 1777467622 | 17.22° C | 25% | 1026 hPa | 0 mm | - | - | - |
| 1777465240 | 17.22° C | 25% | 1026.2 hPa | 0 mm | - | - | - |
| 1777464021 | 16.67° C | 25% | 1026.1 hPa | 0 mm | - | - | - |
| 1777463421 | 16.67° C | 25% | 1026.2 hPa | 0 mm | - | - | - |
| 1777461023 | 16.11° C | 26% | 1026.2 hPa | 0 mm | - | - | - |
| 1777459824 | 16.11° C | 27% | 1026.6 hPa | 0 mm | - | - | - |
| 1777458624 | 15.56° C | 27% | 1026.7 hPa | 0 mm | - | - | - |
| 1777453218 | 13.89° C | 29% | 1026.7 hPa | 0 mm | - | - | - |
| 1777452019 | 13.33° C | 28% | 1026.8 hPa | 0 mm | - | - | - |
| 1777448441 | 11.67° C | 29% | 1026.6 hPa | 0 mm | - | - | - |
| 1777441220 | 10° C | 28% | 1024.8 hPa | 0 mm | - | - | - |
| 1777440621 | 13.33° C | 27% | 1024.8 hPa | 0 mm | - | - | - |
| 1777434626 | 7.22° C | 31% | 1023.2 hPa | 0 mm | - | - | - |
| 1777431616 | 8.33° C | 31% | 1024.4 hPa | 0 mm | - | - | - |
| 1777427418 | 9.44° C | 30% | 1024 hPa | 0 mm | - | - | - |
| 1777426219 | 10° C | 30% | 1024 hPa | 0 mm | - | - | - |
| 1777425021 | 10° C | 30% | 1024.1 hPa | 0 mm | - | - | - |
| 1777422622 | 11.11° C | 29% | 1024.2 hPa | 0 mm | - | - | - |
* Rain latest hour (hover to see other rain measurements)
** Current wind speed in m/s (hover to see current wind gust speed)